Terminal Aerodrome Forecast
Issued by NWS St Louis, MO

Home | Current Version | Previous Version | Text Only | Print | Product List | Glossary On
Versions: 1 2 3 4 5 6 7 8 9 10 11 12 13 14 15 16 17 18 19 20 21 22 23 24 25 26
000
FTUS43 KLSX 021700
TAFSTL
TAF
KSTL 021737Z 0218/0324 VRB05KT P6SM OVC080
     FM021900 19010KT P6SM BKN080
     FM022200 18010KT P6SM VCTS OVC040CB
     FM030000 19008KT 2SM +TSRA OVC015CB
     FM030400 22006KT 4SM -RA VCTS OVC009CB
     FM030700 29008KT 6SM -RA OVC009
     FM030900 29012G18KT 5SM BR OVC007
     FM031500 30015G23KT P6SM BKN020=

USA.gov is the U.S. government's official web portal to all federal, state and local government web resources and services.